Time;durP1;ratioP1;P1;durP2;ratioP2;P2;SDS_P1;SDS_P2;PMS_P1;PMS_P2;Temp;Humidity;BMP_temperature;BMP_pressure;BME280_temperature;BME280_humidity;BME280_pressure;Samples;Min_cycle;Max_cycle;Signal;HPM_P1;HPM_P2
2024/02/19 00:02:50;;;;;;;0.10;0.10;;;;;;;-145.06;100.00;53693.94;10304825;28;20026;-77
2024/02/19 00:07:50;;;;;;;0.10;0.10;;;;;;;-145.06;100.00;53645.31;10295982;28;20023;-77
2024/02/19 00:12:51;;;;;;;0.10;0.10;;;;;;;-145.06;100.00;53665.56;10292297;28;20110;-77
2024/02/19 00:17:51;;;;;;;0.10;0.10;;;;;;;-145.06;100.00;53612.94;10290295;28;20101;-77
2024/02/19 00:22:51;;;;;;;0.00;0.00;;;;;;;-145.06;100.00;53695.94;10293695;28;20496;-76
2024/02/19 00:27:52;;;;;;;0.10;0.10;;;;;;;-145.06;100.00;53651.41;10302289;28;20384;-77
2024/02/19 00:32:53;;;;;;;0.00;0.00;;;;;;;-145.06;100.00;53655.44;10300957;28;20038;-77
2024/02/19 00:37:53;;;;;;;0.00;0.00;;;;;;;-145.06;100.00;53625.06;10298322;28;20023;-76
2024/02/19 00:42:53;;;;;;;0.00;0.00;;;;;;;-145.06;100.00;53655.44;10304339;28;20427;-76
2024/02/19 00:47:54;;;;;;;0.00;0.00;;;;;;;-145.06;100.00;53633.19;10311436;28;20035;-77
2024/02/19 00:52:54;;;;;;;0.00;0.00;;;;;;;-145.06;100.00;53572.44;10314141;28;20030;-77
2024/02/19 00:57:54;;;;;;;0.00;0.00;;;;;;;-145.06;100.00;53610.91;10298041;28;20030;-77
2024/02/19 01:02:55;;;;;;;0.00;0.00;;;;;;;-145.06;100.00;53600.78;10305526;28;20171;-76
2024/02/19 01:07:55;;;;;;;0.10;0.10;;;;;;;-145.06;100.00;53560.28;10300013;28;20019;-77
2024/02/19 01:12:55;;;;;;;0.00;0.00;;;;;;;-145.06;100.00;53495.47;10302078;28;20042;-77
2024/02/19 01:17:56;;;;;;;0.10;0.10;;;;;;;-145.06;100.00;53450.94;10299198;28;20547;-76
2024/02/19 01:22:57;;;;;;;0.00;0.00;;;;;;;-145.06;100.00;53424.59;10301073;28;20121;-76
2024/02/19 01:27:58;;;;;;;0.00;0.00;;;;;;;-145.06;100.00;53376.00;10310448;28;20039;-76
2024/02/19 01:33:01;;;;;;;0.10;0.10;;;;;;;-145.06;100.00;53404.34;10320701;28;20014;-76
2024/02/19 01:38:01;;;;;;;0.00;0.00;;;;;;;-145.06;100.00;53394.22;10299000;28;20018;-76
2024/02/19 01:43:07;;;;;;;0.10;0.10;;;;;;;-145.06;100.00;53404.34;10295666;28;20495;-75
2024/02/19 01:48:08;;;;;;;0.10;0.10;;;;;;;-145.06;100.00;53361.81;10298577;28;20054;-76
2024/02/19 01:53:11;;;;;;;0.00;0.00;;;;;;;-145.06;100.00;53337.53;10295350;28;20387;-75
2024/02/19 01:58:11;;;;;;;0.00;0.00;;;;;;;-145.06;100.00;53353.72;10293861;28;20022;-75
2024/02/19 02:03:17;;;;;;;0.10;0.10;;;;;;;-145.06;100.00;53380.06;10297558;28;20022;-76
2024/02/19 02:08:18;;;;;;;0.00;0.00;;;;;;;-145.06;100.00;53337.53;10305723;28;20042;-75
2024/02/19 02:13:19;;;;;;;0.00;0.00;;;;;;;-145.06;100.00;53333.47;10294517;28;20189;-75
2024/02/19 02:18:19;;;;;;;0.10;0.10;;;;;;;-145.06;100.00;53321.34;10294198;28;20027;-75
2024/02/19 02:23:20;;;;;;;0.00;0.00;;;;;;;-145.06;100.00;53303.09;10314419;28;20539;-75
2024/02/19 02:28:22;;;;;;;0.10;0.10;;;;;;;-145.06;100.00;53329.44;10314177;28;20054;-75
2024/02/19 02:33:22;;;;;;;0.00;0.00;;;;;;;-145.06;100.00;53288.94;10333768;28;20057;-75
2024/02/19 02:38:23;;;;;;;0.00;0.00;;;;;;;-145.06;100.00;53248.44;10333639;28;20543;-75
2024/02/19 02:43:23;;;;;;;0.10;0.10;;;;;;;-145.06;100.00;53288.94;10333357;28;20033;-75
2024/02/19 02:48:23;;;;;;;0.00;0.00;;;;;;;-145.06;100.00;53256.53;10332152;28;20022;-75
2024/02/19 02:53:24;;;;;;;0.10;0.10;;;;;;;-145.06;100.00;53266.66;10332957;28;20034;-75
2024/02/19 02:58:24;;;;;;;0.00;0.00;;;;;;;-145.06;100.00;53292.97;10332703;28;20026;-75
2024/02/19 03:03:24;;;;;;;0.08;0.08;;;;;;;-145.06;100.00;53246.41;10332629;28;20372;-75
2024/02/19 03:08:24;;;;;;;0.00;0.00;;;;;;;-145.06;100.00;53274.75;10332537;28;20023;-75
2024/02/19 03:13:25;;;;;;;0.00;0.00;;;;;;;-145.06;100.00;53248.44;10293254;28;20031;-75
2024/02/19 03:18:26;;;;;;;0.10;0.10;;;;;;;-145.06;100.00;53260.59;10291866;28;20043;-75
2024/02/19 03:23:27;;;;;;;0.00;0.00;;;;;;;-145.06;100.00;53258.56;10291787;28;20476;-75
2024/02/19 03:28:28;;;;;;;0.00;0.00;;;;;;;-145.06;100.00;53246.41;10291391;28;20023;-75
2024/02/19 03:33:28;;;;;;;0.00;0.00;;;;;;;-145.06;100.00;53268.69;10305282;28;20264;-75
2024/02/19 03:38:28;;;;;;;0.00;0.00;;;;;;;-145.06;100.00;53276.78;10291080;28;20033;-75
2024/02/19 03:43:29;;;;;;;0.10;0.10;;;;;;;-145.06;100.00;53250.47;10291576;28;20041;-75
2024/02/19 03:48:33;;;;;;;0.10;0.10;;;;;;;-145.06;100.00;53226.16;10289748;28;20022;-75
2024/02/19 03:53:33;;;;;;;0.00;0.00;;;;;;;-145.06;100.00;53242.38;10304621;28;20035;-74
2024/02/19 03:58:35;;;;;;;0.03;0.03;;;;;;;-145.06;100.00;53248.44;10290300;28;20515;-75
2024/02/19 04:03:35;;;;;;;0.10;0.10;;;;;;;-145.06;100.00;53254.50;10289235;28;20050;-75
2024/02/19 04:08:35;;;;;;;0.10;0.10;;;;;;;-145.06;100.00;53264.63;10290199;28;20054;-75
2024/02/19 04:13:36;;;;;;;0.10;0.10;;;;;;;-145.06;100.00;53276.78;10290251;28;20031;-75
2024/02/19 04:18:36;;;;;;;0.10;0.10;;;;;;;-145.06;100.00;53256.53;10289789;28;20015;-75
2024/02/19 04:23:37;;;;;;;0.00;0.00;;;;;;;-145.06;100.00;53264.63;10325799;28;20065;-75
2024/02/19 04:28:37;;;;;;;0.10;0.10;;;;;;;-145.06;100.00;53260.59;10329763;28;20018;-75
2024/02/19 04:33:37;;;;;;;0.00;0.00;;;;;;;-145.06;100.00;53272.75;10295571;28;20103;-74
2024/02/19 04:38:37;;;;;;;0.00;0.00;;;;;;;-145.06;100.00;53244.38;10290094;28;20031;-75
2024/02/19 04:43:38;;;;;;;0.00;0.00;;;;;;;-145.06;100.00;53228.19;10288476;28;20035;-75
2024/02/19 04:48:38;;;;;;;0.00;0.00;;;;;;;-145.06;100.00;53252.50;10289342;28;20023;-75
2024/02/19 04:53:38;;;;;;;0.00;0.00;;;;;;;-145.06;100.00;53256.53;10289502;28;20057;-75
2024/02/19 04:58:38;;;;;;;0.00;0.00;;;;;;;-145.06;100.00;53272.75;10320371;28;20030;-75
2024/02/19 05:03:39;;;;;;;0.00;0.00;;;;;;;-145.06;100.00;53254.50;10329417;28;20022;-75
2024/02/19 05:08:39;;;;;;;0.00;0.00;;;;;;;-145.06;100.00;53264.63;10329348;28;20040;-75
2024/02/19 05:13:40;;;;;;;0.00;0.00;;;;;;;-145.06;100.00;53272.75;10334175;28;20085;-75
2024/02/19 05:18:40;;;;;;;0.00;0.00;;;;;;;-145.06;100.00;53250.47;10327515;28;20055;-75
2024/02/19 05:23:40;;;;;;;0.10;0.10;;;;;;;-145.06;100.00;53270.72;10296308;28;20030;-74
2024/02/19 05:28:40;;;;;;;0.00;0.00;;;;;;;-145.06;100.00;53276.78;10295740;28;20026;-74
2024/02/19 05:33:41;;;;;;;0.00;0.00;;;;;;;-145.06;100.00;53303.09;10294414;28;20026;-75
2024/02/19 05:38:41;;;;;;;0.03;0.03;;;;;;;-145.06;100.00;53295.00;10295342;28;20034;-75
2024/02/19 05:43:42;;;;;;;0.00;0.00;;;;;;;-145.06;100.00;53321.34;10295342;28;20516;-75
2024/02/19 05:48:43;;;;;;;0.00;0.00;;;;;;;-145.06;100.00;53378.03;10295187;28;20022;-74
2024/02/19 05:53:43;;;;;;;0.10;0.10;;;;;;;-145.06;100.00;53392.19;10294924;28;20042;-74
2024/02/19 05:58:44;;;;;;;0.00;0.00;;;;;;;-145.06;100.00;53434.72;10294797;28;20490;-75
2024/02/19 06:03:45;;;;;;;0.00;0.00;;;;;;;-145.06;100.00;53461.06;10294632;28;20031;-75
2024/02/19 06:08:46;;;;;;;0.00;0.00;;;;;;;-145.06;100.00;53531.94;10295325;28;20365;-74
2024/02/19 06:13:48;;;;;;;0.00;0.00;;;;;;;-145.06;100.00;53639.25;10294837;28;20054;-75
2024/02/19 06:18:48;;;;;;;0.00;0.00;;;;;;;-145.06;100.00;53655.44;10294616;28;20472;-75
2024/02/19 06:23:48;;;;;;;0.10;0.10;;;;;;;-145.06;100.00;53681.78;10294282;28;20030;-75
2024/02/19 06:28:49;;;;;;;0.08;0.08;;;;;;;-145.06;100.00;53706.06;10293780;28;20265;-75
2024/02/19 06:33:49;;;;;;;0.00;0.00;;;;;;;-145.06;100.00;53766.81;10293710;28;20027;-74
2024/02/19 06:38:50;;;;;;;0.00;0.00;;;;;;;-145.06;100.00;53746.56;10298887;28;20502;-75
2024/02/19 06:43:50;;;;;;;0.00;0.00;;;;;;;-145.06;100.00;53795.19;10333495;28;20030;-76
2024/02/19 06:48:50;;;;;;;0.10;0.10;;;;;;;-145.06;100.00;53872.13;10314947;28;20419;-76
2024/02/19 06:53:51;;;;;;;0.03;0.03;;;;;;;-145.06;100.00;53906.56;10333672;28;20041;-76
2024/02/19 06:58:51;;;;;;;0.00;0.00;;;;;;;-145.06;100.00;53916.69;10333639;28;20026;-76
2024/02/19 07:03:51;;;;;;;0.08;0.08;;;;;;;-145.06;100.00;53890.38;10322287;28;20031;-76
2024/02/19 07:08:52;;;;;;;0.10;0.10;;;;;;;-145.06;100.00;53918.72;10313085;28;20081;-76
2024/02/19 07:13:55;;;;;;;0.00;0.00;;;;;;;-145.06;100.00;53965.28;10295414;28;20266;-76
2024/02/19 07:18:55;;;;;;;0.10;0.10;;;;;;;-145.06;100.00;54056.44;10330445;28;20026;-75
2024/02/19 07:23:55;;;;;;;0.10;0.10;;;;;;;-145.06;100.00;54050.34;10304729;28;20027;-76
2024/02/19 07:28:56;;;;;;;0.10;0.10;;;;;;;-145.06;100.00;54070.59;10291858;28;20030;-76
2024/02/19 07:33:58;;;;;;;0.03;0.03;;;;;;;-145.06;100.00;54007.81;10291964;28;20051;-76
2024/02/19 07:38:58;;;;;;;0.00;0.00;;;;;;;-145.06;100.00;53997.69;10292195;28;20043;-76
2024/02/19 07:43:58;;;;;;;0.10;0.10;;;;;;;-145.06;100.00;53951.13;10319380;28;20096;-76
2024/02/19 07:48:58;;;;;;;0.00;0.00;;;;;;;-145.06;100.00;53851.88;10331672;28;20033;-76
2024/02/19 07:53:59;;;;;;;0.00;0.00;;;;;;;-145.06;100.00;53827.59;10331485;28;20076;-76
2024/02/19 07:58:59;;;;;;;0.00;0.00;;;;;;;-145.06;100.00;53831.63;10293992;28;20027;-76
2024/02/19 08:03:59;;;;;;;0.00;0.00;;;;;;;-145.06;100.00;53797.22;10289926;28;20126;-76
2024/02/19 08:09:00;;;;;;;0.10;0.10;;;;;;;-145.06;100.00;53750.63;10291270;28;20073;-76
2024/02/19 08:14:00;;;;;;;0.07;0.07;;;;;;;-145.06;100.00;53700.00;10325956;28;20027;-76
2024/02/19 08:19:01;;;;;;;0.10;0.10;;;;;;;-145.06;100.00;53621.03;10331028;28;20436;-76
2024/02/19 08:24:01;;;;;;;0.10;0.10;;;;;;;-145.06;100.00;53576.47;10331158;28;20041;-76
2024/02/19 08:29:02;;;;;;;0.10;0.10;;;;;;;-145.06;100.00;53562.31;10331100;28;20037;-76
2024/02/19 08:34:02;;;;;;;0.10;0.10;;;;;;;-145.06;100.00;53535.97;10330987;28;20038;-76
2024/02/19 08:39:02;;;;;;;0.10;0.10;;;;;;;-145.06;100.00;53491.44;10330787;28;20551;-76
2024/02/19 08:44:03;;;;;;;0.10;0.10;;;;;;;-145.06;100.00;53424.59;10330587;28;20265;-76
2024/02/19 08:49:03;;;;;;;0.10;0.10;;;;;;;-145.06;100.00;53390.19;10336364;28;20483;-76
2024/02/19 08:54:07;;;;;;;0.10;0.10;;;;;;;-145.06;100.00;53365.88;10338435;28;20399;-76
2024/02/19 08:59:07;;;;;;;0.00;0.00;;;;;;;-145.06;100.00;53276.78;10325099;28;20078;-76
2024/02/19 09:04:08;;;;;;;0.00;0.00;;;;;;;-145.06;100.00;53230.22;10298326;28;20559;-76
2024/02/19 09:09:08;;;;;;;0.10;0.10;;;;;;;-145.06;100.00;53171.50;10296062;28;20038;-76
2024/02/19 09:14:09;;;;;;;0.10;0.10;;;;;;;-145.06;100.00;53167.44;10297861;28;20129;-76
2024/02/19 09:19:09;;;;;;;0.10;0.10;;;;;;;-145.06;100.00;53135.06;10295626;28;20397;-76
2024/02/19 09:24:10;;;;;;;0.10;0.10;;;;;;;-145.06;100.00;53066.22;10297327;28;20027;-76
2024/02/19 09:29:11;;;;;;;0.10;0.10;;;;;;;-145.06;100.00;53066.22;10309981;28;20025;-76
2024/02/19 09:34:11;;;;;;;0.10;0.10;;;;;;;-145.06;100.00;53023.69;10299363;28;20041;-76
2024/02/19 09:39:12;;;;;;;0.08;0.08;;;;;;;-145.06;100.00;53023.69;10311055;28;20031;-76
2024/02/19 09:44:12;;;;;;;0.10;0.10;;;;;;;-145.06;100.00;52985.22;10296122;28;20027;-76
2024/02/19 09:49:14;;;;;;;0.10;0.10;;;;;;;-145.06;100.00;52969.03;10296061;28;20023;-76
2024/02/19 09:54:14;;;;;;;0.10;0.10;;;;;;;-145.06;100.00;52932.56;10294324;28;20022;-75
2024/02/19 09:59:15;;;;;;;0.00;0.00;;;;;;;-145.06;100.00;52940.69;10294773;28;20027;-76
2024/02/19 10:04:15;;;;;;;0.10;0.10;;;;;;;-145.06;100.00;52908.28;10295249;28;20023;-76
2024/02/19 10:09:16;;;;;;;0.10;0.10;;;;;;;-145.06;100.00;52922.44;10295061;28;20097;-75
2024/02/19 10:14:16;;;;;;;0.10;0.10;;;;;;;-145.06;100.00;52892.09;10294478;28;20599;-75
2024/02/19 10:19:17;;;;;;;0.10;0.10;;;;;;;-145.06;100.00;52918.41;10294666;28;20019;-75
2024/02/19 10:24:18;;;;;;;0.00;0.00;;;;;;;-145.06;100.00;52879.94;10294179;28;20077;-75
2024/02/19 10:29:18;;;;;;;0.10;0.10;;;;;;;-145.06;100.00;52823.25;10294160;28;20262;-75
2024/02/19 10:34:19;;;;;;;0.10;0.10;;;;;;;-145.06;100.00;52794.91;10294244;28;20495;-75
2024/02/19 10:39:19;;;;;;;0.00;0.00;;;;;;;-145.06;100.00;52738.22;10297423;28;20015;-75
2024/02/19 10:44:21;;;;;;;0.00;0.00;;;;;;;-145.06;100.00;52649.13;10309151;28;20380;-75
2024/02/19 10:49:22;;;;;;;0.00;0.00;;;;;;;-145.06;100.00;52564.09;10308606;28;20015;-75
2024/02/19 10:54:22;;;;;;;0.10;0.10;;;;;;;-145.06;100.00;52475.03;10293108;28;20028;-75
2024/02/19 10:59:24;;;;;;;0.10;0.10;;;;;;;-145.06;100.00;52493.25;10292948;28;20031;-75
2024/02/19 11:04:24;;;;;;;0.00;0.00;;;;;;;-145.06;100.00;52517.53;10292802;28;20270;-75
2024/02/19 11:09:32;;;;;;;0.00;0.00;;;;;;;-145.06;100.00;52493.25;10291789;28;20110;-74
2024/02/19 11:14:36;;;;;;;0.10;0.10;;;;;;;-145.06;100.00;52477.06;10305792;28;20033;-75
2024/02/19 11:19:40;;;;;;;0.10;0.10;;;;;;;-145.06;100.00;52446.69;10328714;28;20022;-75
2024/02/19 11:24:41;;;;;;;0.00;0.00;;;;;;;-145.06;100.00;52452.75;10316339;28;20553;-75
2024/02/19 11:29:41;;;;;;;0.10;0.10;;;;;;;-145.06;100.00;52436.56;10308106;28;20023;-75
2024/02/19 11:34:41;;;;;;;0.00;0.00;;;;;;;-145.06;100.00;52442.63;10300626;28;20486;-75
2024/02/19 11:39:44;;;;;;;0.10;0.10;;;;;;;-145.06;100.00;52458.84;10310952;28;20034;-75
2024/02/19 11:44:46;;;;;;;0.10;0.10;;;;;;;-145.06;100.00;52422.41;10291061;28;20165;-75
2024/02/19 11:49:47;;;;;;;0.10;0.10;;;;;;;-145.06;100.00;52385.97;10308771;28;20019;-75
2024/02/19 11:54:53;;;;;;;0.00;0.00;;;;;;;-145.06;100.00;52357.63;10298413;28;20027;-75
2024/02/19 11:59:54;;;;;;;0.00;0.00;;;;;;;-145.06;100.00;52359.63;10288718;28;20382;-74
2024/02/19 12:04:57;;;;;;;0.00;0.00;;;;;;;-145.06;100.00;52383.94;10307686;28;20041;-75
2024/02/19 12:09:59;;;;;;;0.10;0.10;;;;;;;-145.06;100.00;52390.00;10290722;28;20015;-74
2024/02/19 12:14:59;;;;;;;0.10;0.10;;;;;;;-145.06;100.00;52406.19;10299946;28;20385;-75
2024/02/19 12:20:00;;;;;;;0.10;0.10;;;;;;;-145.06;100.00;52440.63;10302439;28;20018;-75
2024/02/19 12:25:00;;;;;;;0.00;0.00;;;;;;;-145.06;100.00;52479.06;10328336;28;20554;-75
2024/02/19 12:30:05;;;;;;;0.10;0.10;;;;;;;-145.06;100.00;52440.63;10314055;28;20021;-74
2024/02/19 12:35:05;;;;;;;0.10;0.10;;;;;;;-145.06;100.00;52444.66;10306689;28;20034;-74
2024/02/19 12:40:07;;;;;;;0.10;0.10;;;;;;;-145.06;100.00;52481.09;10304004;28;20035;-75
2024/02/19 12:45:08;;;;;;;0.10;0.10;;;;;;;-145.06;100.00;52464.91;10308446;28;20054;-75
2024/02/19 12:50:09;;;;;;;0.10;0.10;;;;;;;-145.06;100.00;52517.53;10302737;28;20046;-75
2024/02/19 12:55:10;;;;;;;0.10;0.10;;;;;;;-145.06;100.00;52525.63;10308065;28;20046;-75
2024/02/19 13:00:11;;;;;;;0.10;0.10;;;;;;;-145.06;100.00;52507.41;10340333;28;20026;-75
2024/02/19 13:05:11;;;;;;;0.10;0.10;;;;;;;-145.06;100.00;52541.84;10302750;28;20030;-75
2024/02/19 13:10:11;;;;;;;0.10;0.10;;;;;;;-145.06;100.00;52521.59;10321270;28;20033;-75
2024/02/19 13:15:12;;;;;;;0.00;0.00;;;;;;;-145.06;100.00;52509.44;10313651;28;20165;-75
2024/02/19 13:20:14;;;;;;;0.10;0.10;;;;;;;-145.06;100.00;52448.72;10311748;28;20026;-75
2024/02/19 13:25:14;;;;;;;0.10;0.10;;;;;;;-145.06;100.00;52432.53;10323262;28;20030;-75
2024/02/19 13:30:17;;;;;;;0.10;0.10;;;;;;;-145.06;100.00;52373.81;10307069;28;20049;-75
2024/02/19 13:35:17;;;;;;;0.10;0.10;;;;;;;-145.06;100.00;52365.72;10301408;28;20080;-75
2024/02/19 13:40:18;;;;;;;0.10;0.10;;;;;;;-145.06;100.00;52365.72;10295726;28;20433;-75
2024/02/19 13:45:23;;;;;;;0.00;0.00;;;;;;;-145.06;100.00;52381.91;10301720;28;20030;-75
2024/02/19 13:50:24;;;;;;;0.10;0.10;;;;;;;-145.06;100.00;52353.56;10309806;28;20273;-75
2024/02/19 13:55:25;;;;;;;0.10;0.10;;;;;;;-145.06;100.00;52383.94;10300778;28;20033;-75
2024/02/19 14:00:25;;;;;;;0.10;0.10;;;;;;;-145.06;100.00;52400.13;10306891;28;20027;-74
2024/02/19 14:05:30;;;;;;;0.10;0.10;;;;;;;-145.06;100.00;52418.34;10309935;28;20030;-74
2024/02/19 14:10:32;;;;;;;0.10;0.10;;;;;;;-145.06;100.00;52406.19;10296739;28;20027;-75
2024/02/19 14:15:32;;;;;;;0.00;0.00;;;;;;;-145.06;100.00;52398.09;10300358;28;20041;-74
2024/02/19 14:20:33;;;;;;;0.10;0.10;;;;;;;-145.06;100.00;52426.44;10322243;28;20030;-74
2024/02/19 14:25:35;;;;;;;0.10;0.10;;;;;;;-145.06;100.00;52462.88;10297576;28;20117;-74
2024/02/19 14:30:36;;;;;;;0.10;0.10;;;;;;;-145.06;100.00;52470.97;10310207;28;20015;-74
2024/02/19 14:35:36;;;;;;;0.10;0.10;;;;;;;-145.06;100.00;52497.28;10325553;28;20030;-75
2024/02/19 14:40:37;;;;;;;0.10;0.10;;;;;;;-145.06;100.00;52503.38;10302291;28;20086;-75
2024/02/19 14:45:37;;;;;;;0.10;0.10;;;;;;;-145.06;100.00;52521.59;10291092;28;20033;-74
2024/02/19 14:50:37;;;;;;;0.10;0.10;;;;;;;-145.06;100.00;52539.81;10299915;28;20019;-74
2024/02/19 14:55:38;;;;;;;0.10;0.10;;;;;;;-145.06;100.00;52535.75;10295369;28;20026;-74
2024/02/19 15:00:40;;;;;;;0.00;0.00;;;;;;;-145.06;100.00;52525.63;10292658;28;20022;-74
2024/02/19 15:05:41;;;;;;;0.10;0.10;;;;;;;-145.06;100.00;52560.06;10293438;28;20035;-74
2024/02/19 15:10:42;;;;;;;0.05;0.05;;;;;;;-145.06;100.00;52572.19;10303465;28;20019;-74
2024/02/19 15:15:43;;;;;;;0.00;0.00;;;;;;;-145.06;100.00;52545.88;10305317;28;20046;-74
2024/02/19 15:20:44;;;;;;;0.10;0.10;;;;;;;-145.06;100.00;52535.75;10299591;28;20031;-74
2024/02/19 15:25:45;;;;;;;0.10;0.10;;;;;;;-145.06;100.00;52560.06;10299295;28;20065;-74
2024/02/19 15:30:46;;;;;;;0.10;0.10;;;;;;;-145.06;100.00;52586.38;10303770;28;20129;-74
2024/02/19 15:35:47;;;;;;;0.10;0.10;;;;;;;-145.06;100.00;52566.13;10293119;28;20049;-75
2024/02/19 15:40:47;;;;;;;0.00;0.00;;;;;;;-145.06;100.00;52560.06;10293641;28;20019;-75
2024/02/19 15:45:48;;;;;;;0.00;0.00;;;;;;;-145.06;100.00;52531.72;10296429;28;20023;-75
2024/02/19 15:50:48;;;;;;;0.00;0.00;;;;;;;-145.06;100.00;52541.84;10290969;28;20528;-75
2024/02/19 15:55:48;;;;;;;0.10;0.10;;;;;;;-145.06;100.00;52513.50;10294110;28;20022;-75
2024/02/19 16:00:49;;;;;;;0.10;0.10;;;;;;;-145.06;100.00;52495.28;10311405;28;20091;-75
2024/02/19 16:05:58;;;;;;;0.10;0.10;;;;;;;-145.06;100.00;52499.31;10304158;28;20037;-75
2024/02/19 16:11:03;;;;;;;0.10;0.10;;;;;;;-145.06;100.00;52507.41;10325999;28;20463;-75
2024/02/19 16:16:04;;;;;;;0.00;0.00;;;;;;;-145.06;100.00;52523.63;10305218;28;20035;-75
2024/02/19 16:21:05;;;;;;;0.00;0.00;;;;;;;-145.06;100.00;52543.84;10290022;28;20062;-75
2024/02/19 16:26:05;;;;;;;0.10;0.10;;;;;;;-145.06;100.00;52521.59;10290184;28;20119;-75
2024/02/19 16:31:06;;;;;;;0.00;0.00;;;;;;;-145.06;100.00;52491.22;10309190;28;20022;-75
2024/02/19 16:36:07;;;;;;;0.10;0.10;;;;;;;-145.06;100.00;52501.34;10315838;28;20029;-74
2024/02/19 16:41:08;;;;;;;0.10;0.10;;;;;;;-145.06;100.00;52531.72;10330029;28;20109;-75
2024/02/19 16:46:08;;;;;;;0.05;0.05;;;;;;;-145.06;100.00;52531.72;10296443;28;20030;-75
2024/02/19 16:51:12;;;;;;;0.10;0.10;;;;;;;-145.06;100.00;52515.53;10298408;28;20025;-75
2024/02/19 16:56:15;;;;;;;0.10;0.10;;;;;;;-145.06;100.00;52541.84;10289533;28;20543;-75
2024/02/19 17:01:16;;;;;;;0.10;0.10;;;;;;;-145.06;100.00;52515.53;10293737;28;20293;-75
2024/02/19 17:06:17;;;;;;;0.00;0.00;;;;;;;-145.06;100.00;52527.66;10322339;28;20057;-75
2024/02/19 17:11:19;;;;;;;0.10;0.10;;;;;;;-145.06;100.00;52523.63;10296631;28;20027;-75
2024/02/19 17:16:19;;;;;;;0.10;0.10;;;;;;;-145.06;100.00;52553.97;10324510;28;20018;-76
2024/02/19 17:21:20;;;;;;;0.00;0.00;;;;;;;-145.06;100.00;52574.22;10321517;28;20420;-75
2024/02/19 17:26:20;;;;;;;0.10;0.10;;;;;;;-145.06;100.00;52576.25;10303540;28;20026;-75
2024/02/19 17:31:24;;;;;;;0.10;0.10;;;;;;;-145.06;100.00;52618.75;10296237;28;20081;-76
2024/02/19 17:36:26;;;;;;;0.00;0.00;;;;;;;-145.06;100.00;52647.13;10296235;28;20026;-75
2024/02/19 17:41:26;;;;;;;0.10;0.10;;;;;;;-145.06;100.00;52624.84;10297556;28;20088;-75
2024/02/19 17:46:28;;;;;;;0.00;0.00;;;;;;;-145.06;100.00;52659.25;10322756;28;20030;-75
2024/02/19 17:51:28;;;;;;;0.10;0.10;;;;;;;-145.06;100.00;52645.09;10315061;28;20477;-75
2024/02/19 17:56:29;;;;;;;0.00;0.00;;;;;;;-145.06;100.00;52614.72;10306269;28;20030;-75
2024/02/19 18:01:29;;;;;;;0.10;0.10;;;;;;;-145.06;100.00;52651.16;10294894;28;20027;-75
2024/02/19 18:06:29;;;;;;;0.10;0.10;;;;;;;-145.06;100.00;52655.22;10294956;28;20114;-75
2024/02/19 18:11:29;;;;;;;0.10;0.10;;;;;;;-145.06;100.00;52663.31;10294742;28;20022;-76
2024/02/19 18:16:32;;;;;;;0.10;0.10;;;;;;;-145.06;100.00;52643.06;10294636;28;20369;-75
2024/02/19 18:21:32;;;;;;;0.00;0.00;;;;;;;-145.06;100.00;52667.34;10294017;28;20035;-75
2024/02/19 18:26:33;;;;;;;0.10;0.10;;;;;;;-145.06;100.00;52647.13;10302620;28;20030;-76
2024/02/19 18:31:37;;;;;;;0.00;0.00;;;;;;;-145.06;100.00;52655.22;10325270;28;20105;-75
2024/02/19 18:36:37;;;;;;;0.10;0.10;;;;;;;-145.06;100.00;52675.44;10293827;28;20023;-76
2024/02/19 18:41:38;;;;;;;0.10;0.10;;;;;;;-145.06;100.00;52669.38;10296883;28;20027;-76
2024/02/19 18:46:38;;;;;;;0.10;0.10;;;;;;;-145.06;100.00;52701.78;10301244;28;20030;-75
2024/02/19 18:51:41;;;;;;;0.10;0.10;;;;;;;-145.06;100.00;52717.97;10293046;28;20396;-75
2024/02/19 18:56:42;;;;;;;0.10;0.10;;;;;;;-145.06;100.00;52703.78;10293222;28;20061;-75
2024/02/19 19:01:42;;;;;;;0.00;0.00;;;;;;;-145.06;100.00;52697.72;10292804;28;20037;-76
2024/02/19 19:06:42;;;;;;;0.10;0.10;;;;;;;-145.06;100.00;52683.56;10292764;28;20109;-75
2024/02/19 19:11:42;;;;;;;0.00;0.00;;;;;;;-145.06;100.00;52687.59;10292583;28;20023;-75
2024/02/19 19:16:43;;;;;;;0.00;0.00;;;;;;;-145.06;100.00;52703.78;10292347;28;20105;-75
2024/02/19 19:21:43;;;;;;;0.10;0.10;;;;;;;-145.06;100.00;52752.38;10292077;28;20054;-76
2024/02/19 19:26:44;;;;;;;0.10;0.10;;;;;;;-145.06;100.00;52722.03;10294331;28;20034;-75
2024/02/19 19:31:44;;;;;;;0.00;0.00;;;;;;;-145.06;100.00;52711.91;10290509;28;20376;-76
2024/02/19 19:36:46;;;;;;;0.00;0.00;;;;;;;-145.06;100.00;52738.22;10291425;28;20022;-75
2024/02/19 19:41:46;;;;;;;0.00;0.00;;;;;;;-145.06;100.00;52736.19;10289691;28;20027;-75
2024/02/19 19:46:47;;;;;;;0.10;0.10;;;;;;;-145.06;100.00;52762.50;10289845;28;20440;-76
2024/02/19 19:51:47;;;;;;;0.03;0.03;;;;;;;-145.06;100.00;52740.25;10295007;28;20023;-75
2024/02/19 19:56:47;;;;;;;0.10;0.10;;;;;;;-145.06;100.00;52744.28;10302403;28;20105;-75
2024/02/19 20:01:48;;;;;;;0.10;0.10;;;;;;;-145.06;100.00;52764.53;10290288;28;20035;-75
2024/02/19 20:06:48;;;;;;;0.10;0.10;;;;;;;-145.06;100.00;52786.81;10304453;28;20587;-76
2024/02/19 20:11:48;;;;;;;0.10;0.10;;;;;;;-145.06;100.00;52766.56;10303470;28;20015;-76
2024/02/19 20:16:49;;;;;;;0.10;0.10;;;;;;;-145.06;100.00;52770.59;10316127;28;20026;-75
2024/02/19 20:21:49;;;;;;;0.10;0.10;;;;;;;-145.06;100.00;52764.53;10307238;28;20080;-75
2024/02/19 20:26:50;;;;;;;0.10;0.10;;;;;;;-145.06;100.00;52780.72;10307727;28;20061;-76
2024/02/19 20:31:50;;;;;;;0.10;0.10;;;;;;;-145.06;100.00;52776.69;10326908;28;20048;-75
2024/02/19 20:36:50;;;;;;;0.10;0.10;;;;;;;-145.06;100.00;52762.50;10322512;28;20022;-75
2024/02/19 20:41:54;;;;;;;0.10;0.10;;;;;;;-145.06;100.00;52768.59;10292071;28;20027;-75
2024/02/19 20:46:55;;;;;;;0.10;0.10;;;;;;;-145.06;100.00;52756.44;10298025;28;20022;-74
2024/02/19 20:51:55;;;;;;;0.10;0.10;;;;;;;-145.06;100.00;52766.56;10297868;28;20029;-76
2024/02/19 20:56:56;;;;;;;0.00;0.00;;;;;;;-145.06;100.00;52784.78;10297808;28;20517;-75
2024/02/19 21:01:56;;;;;;;0.10;0.10;;;;;;;-145.06;100.00;52760.47;10299806;28;20352;-75
2024/02/19 21:06:56;;;;;;;0.00;0.00;;;;;;;-145.06;100.00;52780.72;10330753;28;20030;-76
2024/02/19 21:11:57;;;;;;;0.00;0.00;;;;;;;-145.06;100.00;52746.31;10318421;28;20186;-76
2024/02/19 21:16:58;;;;;;;0.10;0.10;;;;;;;-145.06;100.00;52774.66;10319472;28;20285;-76
2024/02/19 21:21:59;;;;;;;0.10;0.10;;;;;;;-145.06;100.00;52774.66;10296867;28;20088;-76
2024/02/19 21:27:00;;;;;;;0.00;0.00;;;;;;;-145.06;100.00;52774.66;10324158;28;20041;-76
2024/02/19 21:32:01;;;;;;;0.03;0.03;;;;;;;-145.06;100.00;52756.44;10316209;28;20500;-75
2024/02/19 21:37:01;;;;;;;0.00;0.00;;;;;;;-145.06;100.00;52803.00;10295869;28;20027;-75
2024/02/19 21:42:03;;;;;;;0.10;0.10;;;;;;;-145.06;100.00;52809.06;10294589;28;20019;-76
2024/02/19 21:47:04;;;;;;;0.00;0.00;;;;;;;-145.06;100.00;52803.00;10295802;28;20574;-75
2024/02/19 21:52:04;;;;;;;0.10;0.10;;;;;;;-145.06;100.00;52800.97;10293972;28;20085;-75
2024/02/19 21:57:04;;;;;;;0.10;0.10;;;;;;;-145.06;100.00;52817.19;10294915;28;20027;-75
2024/02/19 22:02:05;;;;;;;0.00;0.00;;;;;;;-145.06;100.00;52847.53;10295304;28;20082;-75
2024/02/19 22:07:05;;;;;;;0.03;0.03;;;;;;;-145.06;100.00;52859.69;10331159;28;20106;-76
2024/02/19 22:12:05;;;;;;;0.00;0.00;;;;;;;-145.06;100.00;52879.94;10335082;28;20101;-76
2024/02/19 22:17:06;;;;;;;0.00;0.00;;;;;;;-145.06;100.00;52849.56;10317914;28;20030;-76
2024/02/19 22:22:07;;;;;;;0.10;0.10;;;;;;;-145.06;100.00;52888.03;10324316;28;20495;-75
2024/02/19 22:27:07;;;;;;;0.00;0.00;;;;;;;-145.06;100.00;52865.75;10333271;28;20034;-75
2024/02/19 22:32:07;;;;;;;0.00;0.00;;;;;;;-145.06;100.00;52865.75;10297303;28;20485;-75